Observations for ALDERNEY CHANNEL IS, United Kingdom (EGJA)

EGJA 221250Z 25015KT 9999 SHRA FEW018CB SCT032 07/03 Q1003  
EGJA 221220Z 27014KT 9999 SCT036 08/02 Q1004
EGJA 221150Z 26015KT 9999 SCT028 07/01 Q1005
EGJA 221050Z 29011KT 9999 SCT028 07/03 Q1005
EGJA 221020Z 28013KT 9999 SCT026 07/03 Q1005
EGJA 220950Z 29016KT 9999 VCSH SCT026 06/02 Q1006   
EGJA 220920Z 30014KT 9999 VCSH FEW018CB SCT026 06/03 Q1006  
EGJA 220850Z 29014KT 9999 SCT026 06/02 Q1006
EGJA 220820Z 29014KT 9999 SCT025 06/02 Q1006
EGJA 220750Z 30018KT 9999 SCT025 06/02 Q1007
EGJA 220720Z 30015KT 9999 SCT023 06/02 Q1006
EGJA 211820Z 19011KT 9999 SCT010 06/05 Q1018
EGJA 211750Z 19011KT 9999 -RA BKN010 06/05 Q1019 RERA   
EGJA 211720Z 19012KT 9999 RA BKN013 06/04 Q1019 
EGJA 211650Z 19011KT 9999 BKN015 06/03 Q1020
EGJA 211620Z 20010KT 9999 BKN018 06/03 Q1020
EGJA 211550Z 18011KT 9999 FEW018 BKN030 06/03 Q1020 
EGJA 211520Z 19009KT 9999 FEW018 BKN030 06/03 Q1021 
EGJA 211450Z 20010KT 9999 FEW018 BKN029 06/03 Q1021 
EGJA 211420Z 19008KT 9999 SCT018 BKN031 06/03 Q1021 
EGJA 211350Z 18006KT 9999 SCT025 BKN040 06/02 Q1022 
EGJA 211320Z 15005KT 9999 SCT025 BKN040 07/02 Q1022 
EGJA 211250Z 15005KT 9999 SCT025 07/03 Q1023
EGJA 211220Z 07004KT 9999 SCT036 06/03 Q1023